Time;durP1;ratioP1;P1;durP2;ratioP2;P2;SDS_P1;SDS_P2;PMS_P1;PMS_P2;Temp;Humidity;BMP_temperature;BMP_pressure;BME280_temperature;BME280_humidity;BME280_pressure;Samples;Min_cycle;Max_cycle;Signal;HPM_P1;HPM_P2
2022/07/08 00:01:17;;;;;;;15.83;3.17;;;15.00;99.90;;;;;;4984598;28;20673;-57
2022/07/08 00:03:43;;;;;;;22.33;3.07;;;14.90;99.90;;;;;;4992126;28;20192;-57
2022/07/08 00:06:08;;;;;;;17.60;2.93;;;14.80;99.90;;;;;;4991624;28;20267;-57
2022/07/08 00:08:36;;;;;;;19.27;3.50;;;14.90;99.90;;;;;;4991976;28;20196;-58
2022/07/08 00:11:01;;;;;;;10.90;3.40;;;14.90;99.90;;;;;;4990723;28;20436;-55
2022/07/08 00:13:27;;;;;;;26.57;3.33;;;14.90;99.90;;;;;;4992520;28;20404;-57
2022/07/08 00:15:53;;;;;;;13.50;3.03;;;14.90;99.90;;;;;;4990397;28;20968;-55
2022/07/08 00:18:18;;;;;;;17.03;3.17;;;14.90;99.90;;;;;;4982359;28;20201;-55
2022/07/08 00:20:44;;;;;;;12.20;3.70;;;14.80;99.90;;;;;;4979248;28;20199;-58
2022/07/08 00:23:09;;;;;;;18.80;3.10;;;14.80;99.90;;;;;;4990903;28;20254;-57
2022/07/08 00:25:35;;;;;;;12.43;2.80;;;14.80;99.90;;;;;;4991244;28;20757;-57
2022/07/08 00:28:00;;;;;;;12.40;2.93;;;14.80;99.90;;;;;;4991683;28;20191;-57
2022/07/08 00:30:26;;;;;;;15.37;3.63;;;14.80;99.90;;;;;;4990839;28;20635;-57
2022/07/08 00:32:52;;;;;;;14.67;2.97;;;14.80;99.90;;;;;;4990283;28;20177;-57
2022/07/08 00:35:17;;;;;;;13.50;3.40;;;14.80;99.90;;;;;;4990697;28;20235;-57
2022/07/08 00:37:43;;;;;;;8.93;2.80;;;14.80;99.90;;;;;;4991686;28;20272;-57
2022/07/08 00:40:09;;;;;;;10.87;2.63;;;14.80;99.90;;;;;;4972676;28;20197;-57
2022/07/08 00:42:35;;;;;;;13.27;2.97;;;14.80;99.90;;;;;;4991732;28;20825;-57
2022/07/08 00:45:00;;;;;;;10.43;2.90;;;14.70;99.90;;;;;;4990843;28;20509;-57
2022/07/08 00:47:26;;;;;;;12.70;2.73;;;14.70;99.90;;;;;;4990718;28;20187;-57
2022/07/08 00:49:52;;;;;;;16.20;3.33;;;14.70;99.90;;;;;;4989974;28;20223;-57
2022/07/08 00:52:18;;;;;;;12.53;2.60;;;14.60;99.90;;;;;;4989364;28;20475;-57
2022/07/08 00:54:44;;;;;;;14.57;2.90;;;14.50;99.90;;;;;;4991121;28;21038;-58
2022/07/08 00:57:10;;;;;;;21.23;3.07;;;14.50;99.90;;;;;;4991753;28;20192;-58
2022/07/08 00:59:36;;;;;;;16.57;2.90;;;14.50;99.90;;;;;;4989366;28;20498;-58
2022/07/08 01:02:02;;;;;;;18.00;2.77;;;14.40;99.90;;;;;;4991206;28;20446;-58
2022/07/08 01:04:28;;;;;;;13.80;3.33;;;14.40;99.90;;;;;;4988053;28;20216;-58
2022/07/08 01:06:53;;;;;;;11.83;2.70;;;14.50;99.90;;;;;;4990039;28;20189;-58
2022/07/08 01:09:19;;;;;;;13.93;3.10;;;14.50;99.90;;;;;;4990778;28;20247;-56
2022/07/08 01:11:48;;;;;;;13.13;2.83;;;14.50;99.90;;;;;;4985557;28;20207;-56
2022/07/08 01:14:15;;;;;;;10.00;2.50;;;14.50;99.90;;;;;;4991109;28;20276;-57
2022/07/08 01:16:41;;;;;;;9.63;2.57;;;14.50;99.90;;;;;;4990114;28;20443;-56
2022/07/08 01:19:07;;;;;;;20.17;4.40;;;14.50;99.90;;;;;;4991114;28;20426;-57
2022/07/08 01:21:32;;;;;;;16.97;3.27;;;14.50;99.90;;;;;;4989785;28;20451;-56
2022/07/08 01:23:58;;;;;;;12.47;2.43;;;14.40;99.90;;;;;;4990799;28;20184;-57
2022/07/08 01:26:24;;;;;;;11.17;3.23;;;14.40;99.90;;;;;;4990067;28;20200;-57
2022/07/08 01:28:50;;;;;;;12.73;2.57;;;14.40;99.90;;;;;;4989713;28;20629;-57
2022/07/08 01:31:16;;;;;;;16.83;3.13;;;14.40;99.90;;;;;;4989077;28;20435;-57
2022/07/08 01:33:41;;;;;;;13.77;2.50;;;14.40;99.90;;;;;;4990162;28;20454;-56
2022/07/08 01:36:07;;;;;;;17.17;3.03;;;14.40;99.90;;;;;;4989460;28;20196;-57
2022/07/08 01:38:33;;;;;;;8.73;2.50;;;14.40;99.90;;;;;;4990920;28;20192;-56
2022/07/08 01:40:59;;;;;;;9.90;2.70;;;14.40;99.90;;;;;;4989357;28;20562;-55
2022/07/08 01:43:25;;;;;;;16.00;2.60;;;14.40;99.90;;;;;;4990907;28;20191;-56
2022/07/08 01:45:51;;;;;;;9.33;2.50;;;14.40;99.90;;;;;;4989999;28;20478;-57
2022/07/08 01:48:16;;;;;;;11.73;2.87;;;14.40;99.90;;;;;;4981637;28;20276;-56
2022/07/08 01:50:42;;;;;;;7.70;2.27;;;14.40;99.90;;;;;;4970860;28;20191;-56
2022/07/08 01:53:08;;;;;;;17.23;3.07;;;14.40;99.90;;;;;;4989495;28;20203;-56
2022/07/08 01:55:34;;;;;;;10.13;2.60;;;14.40;99.90;;;;;;4990203;28;20192;-56
2022/07/08 01:57:59;;;;;;;13.87;3.10;;;14.50;99.90;;;;;;4990147;28;20197;-56
2022/07/08 02:00:25;;;;;;;10.60;2.50;;;14.40;99.90;;;;;;4987989;28;21693;-56
2022/07/08 02:02:50;;;;;;;11.87;2.60;;;14.40;99.90;;;;;;4988822;28;20654;-56
2022/07/08 02:05:16;;;;;;;21.03;3.63;;;14.40;99.90;;;;;;4990015;28;20204;-56
2022/07/08 02:07:42;;;;;;;10.80;2.70;;;14.40;99.90;;;;;;4990033;28;20189;-53
2022/07/08 02:10:09;;;;;;;12.20;2.53;;;14.50;99.90;;;;;;4988437;28;20190;-51
2022/07/08 02:12:34;;;;;;;11.90;2.90;;;14.50;99.90;;;;;;4988443;28;20434;-51
2022/07/08 02:15:03;;;;;;;14.03;2.20;;;14.50;99.90;;;;;;4989294;28;20857;-51
2022/07/08 02:17:31;;;;;;;12.03;2.80;;;14.60;99.90;;;;;;4994288;28;20188;-50
2022/07/08 02:19:57;;;;;;;11.83;2.80;;;14.60;99.90;;;;;;4993150;28;20438;-51
2022/07/08 02:22:23;;;;;;;14.90;2.90;;;14.50;99.90;;;;;;4991113;28;20471;-50
2022/07/08 02:24:49;;;;;;;12.20;3.30;;;14.50;99.90;;;;;;4991614;28;20470;-51
2022/07/08 02:27:15;;;;;;;12.03;2.33;;;14.50;99.90;;;;;;4974878;28;20427;-51
2022/07/08 02:29:41;;;;;;;18.20;3.10;;;14.50;99.90;;;;;;4975807;28;20295;-50
2022/07/08 02:32:07;;;;;;;15.00;2.30;;;14.40;99.90;;;;;;4994184;28;20507;-51
2022/07/08 02:34:33;;;;;;;15.13;2.67;;;14.50;99.90;;;;;;4993163;28;20630;-51
2022/07/08 02:36:59;;;;;;;12.17;2.07;;;14.50;99.90;;;;;;4974709;28;20408;-51
2022/07/08 02:39:25;;;;;;;12.90;3.17;;;14.60;99.90;;;;;;4974643;28;20404;-51
2022/07/08 02:41:50;;;;;;;9.53;2.30;;;14.60;99.90;;;;;;4990329;28;20258;-51
2022/07/08 02:44:17;;;;;;;14.97;2.70;;;14.60;99.90;;;;;;4982328;28;20208;-50
2022/07/08 02:46:43;;;;;;;9.90;2.80;;;14.60;99.90;;;;;;4990257;28;20195;-50
2022/07/08 02:49:09;;;;;;;7.60;2.17;;;14.50;99.90;;;;;;4994319;28;20905;-50
2022/07/08 02:51:35;;;;;;;13.73;3.00;;;14.50;99.90;;;;;;4991603;28;20200;-51
2022/07/08 02:54:01;;;;;;;12.00;2.20;;;14.50;99.90;;;;;;4992467;28;20244;-52
2022/07/08 02:56:29;;;;;;;12.33;2.80;;;14.50;99.90;;;;;;4993532;28;20426;-51
2022/07/08 02:58:54;;;;;;;10.23;2.47;;;14.50;99.90;;;;;;4992302;28;20926;-51
2022/07/08 03:01:20;;;;;;;14.37;2.60;;;14.50;99.90;;;;;;4993038;28;20461;-51
2022/07/08 03:03:46;;;;;;;8.37;2.33;;;14.40;99.90;;;;;;4985591;28;20444;-51
2022/07/08 03:06:12;;;;;;;9.00;2.40;;;14.40;99.90;;;;;;4986052;28;20235;-51
2022/07/08 03:08:38;;;;;;;11.43;2.73;;;14.50;99.90;;;;;;4992867;28;20196;-51
2022/07/08 03:11:03;;;;;;;10.23;2.47;;;14.50;99.90;;;;;;4992722;28;20440;-51
2022/07/08 03:13:30;;;;;;;13.73;2.60;;;14.40;99.90;;;;;;4992669;28;20238;-55
2022/07/08 03:15:56;;;;;;;8.07;2.60;;;14.40;99.90;;;;;;4993413;28;20180;-51
2022/07/08 03:18:22;;;;;;;15.97;2.60;;;14.40;99.90;;;;;;4992489;28;20506;-51
2022/07/08 03:20:48;;;;;;;9.40;2.53;;;14.30;99.90;;;;;;4990950;28;20439;-51
2022/07/08 03:23:13;;;;;;;8.67;2.20;;;14.30;99.90;;;;;;4993110;28;20207;-56
2022/07/08 03:25:39;;;;;;;8.30;2.60;;;14.30;99.90;;;;;;4992651;28;20251;-55
2022/07/08 03:28:05;;;;;;;12.77;2.90;;;14.30;99.90;;;;;;4991620;28;20223;-55
2022/07/08 03:30:30;;;;;;;8.27;2.10;;;14.30;99.90;;;;;;4970168;28;20684;-56
2022/07/08 03:32:57;;;;;;;9.97;2.40;;;14.30;99.90;;;;;;4992467;28;20202;-56
2022/07/08 03:35:22;;;;;;;9.53;2.63;;;14.30;99.90;;;;;;4992128;28;20784;-56
2022/07/08 03:37:48;;;;;;;15.00;2.47;;;14.30;99.90;;;;;;4991806;28;20436;-56
2022/07/08 03:42:59;;;;;;;14.33;2.90;;;14.30;99.90;;;;;;4991333;28;20661;-58
2022/07/08 03:45:24;;;;;;;12.80;2.40;;;14.30;99.90;;;;;;4992756;28;20945;-56
2022/07/08 03:47:51;;;;;;;13.07;2.47;;;14.40;99.90;;;;;;4992104;28;20423;-56
2022/07/08 03:50:18;;;;;;;9.03;2.40;;;14.30;99.90;;;;;;4992723;28;20165;-55
2022/07/08 03:52:46;;;;;;;13.30;3.00;;;14.30;99.90;;;;;;4991270;28;20443;-55
2022/07/08 03:55:12;;;;;;;15.77;2.80;;;14.30;99.90;;;;;;4991553;28;20494;-56
2022/07/08 03:57:38;;;;;;;8.10;2.07;;;14.20;99.90;;;;;;4992865;28;20451;-57
2022/07/08 04:00:07;;;;;;;8.73;2.50;;;14.30;99.90;;;;;;4994124;28;20742;-56
2022/07/08 04:02:33;;;;;;;9.57;2.43;;;14.30;99.90;;;;;;4993359;28;20805;-56
2022/07/08 04:04:58;;;;;;;8.20;2.43;;;14.40;99.90;;;;;;4992311;28;20471;-54
2022/07/08 04:07:24;;;;;;;7.80;2.80;;;14.40;99.90;;;;;;4982909;28;20423;-56
2022/07/08 04:09:50;;;;;;;15.07;2.07;;;14.40;99.90;;;;;;4987357;28;20678;-55
2022/07/08 04:12:16;;;;;;;11.90;2.30;;;14.50;99.90;;;;;;4993580;28;20184;-55
2022/07/08 04:14:41;;;;;;;7.80;2.40;;;14.50;99.90;;;;;;4990559;28;20520;-56
2022/07/08 04:17:07;;;;;;;17.40;2.77;;;14.60;99.90;;;;;;4993742;28;20465;-56
2022/07/08 04:19:33;;;;;;;10.23;2.60;;;14.70;99.90;;;;;;4993050;28;20648;-56
2022/07/08 04:21:58;;;;;;;21.43;3.30;;;14.70;99.90;;;;;;4992958;28;20215;-54
2022/07/08 04:24:24;;;;;;;9.73;2.60;;;14.80;99.90;;;;;;4991767;28;20224;-56
2022/07/08 04:26:49;;;;;;;9.73;2.03;;;14.80;99.90;;;;;;4992686;28;20223;-56
2022/07/08 04:29:15;;;;;;;16.20;2.90;;;14.90;99.90;;;;;;4991932;28;20196;-56
2022/07/08 04:31:40;;;;;;;12.83;2.50;;;15.00;99.90;;;;;;4993548;28;20228;-56
2022/07/08 04:34:06;;;;;;;4.23;2.20;;;15.10;99.90;;;;;;4992209;28;20536;-56
2022/07/08 04:36:32;;;;;;;15.60;2.93;;;15.20;99.90;;;;;;4992679;28;20288;-56
2022/07/08 04:38:57;;;;;;;7.03;2.00;;;15.30;99.90;;;;;;4990128;28;20188;-56
2022/07/08 04:41:23;;;;;;;10.03;2.73;;;15.40;99.90;;;;;;4993311;28;20508;-55
2022/07/08 04:43:49;;;;;;;10.47;2.80;;;15.50;99.90;;;;;;4992542;28;20184;-56
2022/07/08 04:46:14;;;;;;;7.90;2.40;;;15.60;99.90;;;;;;4992940;28;20995;-56
2022/07/08 04:48:40;;;;;;;20.47;3.13;;;15.80;99.90;;;;;;4992433;28;20250;-54
2022/07/08 04:51:06;;;;;;;19.07;2.77;;;15.90;99.90;;;;;;4990698;28;20235;-56
2022/07/08 04:53:32;;;;;;;11.57;2.67;;;16.00;99.90;;;;;;4992538;28;21086;-56
2022/07/08 04:55:58;;;;;;;10.93;2.73;;;16.20;99.90;;;;;;4992302;28;20204;-57
2022/07/08 04:58:23;;;;;;;10.93;2.93;;;16.20;99.90;;;;;;4989511;28;20193;-54
2022/07/08 05:00:49;;;;;;;9.33;2.30;;;16.30;99.90;;;;;;4988515;28;20698;-57
2022/07/08 05:03:15;;;;;;;9.57;2.50;;;16.50;99.90;;;;;;4991515;28;20267;-56
2022/07/08 05:05:40;;;;;;;11.80;2.50;;;16.70;99.90;;;;;;4990601;28;20215;-56
2022/07/08 05:08:06;;;;;;;12.27;2.70;;;16.70;99.90;;;;;;4990341;28;20243;-56
2022/07/08 05:10:32;;;;;;;21.50;3.10;;;16.80;99.90;;;;;;4990232;28;20216;-57
2022/07/08 05:12:58;;;;;;;10.70;2.33;;;16.80;99.90;;;;;;4991173;28;20180;-51
2022/07/08 05:15:24;;;;;;;7.10;1.97;;;16.70;99.90;;;;;;4989450;28;20222;-52
2022/07/08 05:17:52;;;;;;;13.80;2.50;;;16.60;99.90;;;;;;4990386;28;20443;-51
2022/07/08 05:20:18;;;;;;;11.10;2.13;;;16.40;99.90;;;;;;4988755;28;20447;-51
2022/07/08 05:22:44;;;;;;;6.80;2.53;;;16.50;99.90;;;;;;4990959;28;20819;-51
2022/07/08 05:25:10;;;;;;;13.17;2.60;;;16.60;99.90;;;;;;4990295;28;20536;-51
2022/07/08 05:27:36;;;;;;;17.13;2.33;;;16.50;99.90;;;;;;4990534;28;20443;-51
2022/07/08 05:30:04;;;;;;;8.70;2.23;;;16.30;99.90;;;;;;4990535;28;20439;-51
2022/07/08 05:32:29;;;;;;;7.47;2.37;;;16.40;99.90;;;;;;4990594;28;20439;-51
2022/07/08 05:34:55;;;;;;;12.80;2.33;;;16.50;99.90;;;;;;4982880;28;20456;-51
2022/07/08 05:37:21;;;;;;;16.60;2.97;;;16.70;99.90;;;;;;4983175;28;20696;-51
2022/07/08 05:39:47;;;;;;;10.83;2.47;;;16.60;99.90;;;;;;4972962;28;20962;-51
2022/07/08 05:42:12;;;;;;;11.97;2.43;;;16.80;99.90;;;;;;4989255;28;20192;-51
2022/07/08 05:44:38;;;;;;;11.47;2.07;;;16.90;99.90;;;;;;4993516;28;20255;-51
2022/07/08 05:47:05;;;;;;;13.77;2.20;;;16.80;99.90;;;;;;4988567;28;20448;-57
2022/07/08 05:49:31;;;;;;;14.10;2.70;;;16.60;99.90;;;;;;4988305;28;20246;-51
2022/07/08 05:51:57;;;;;;;10.93;2.20;;;16.50;99.90;;;;;;4994313;28;20404;-51
2022/07/08 05:54:23;;;;;;;7.13;1.70;;;16.40;99.90;;;;;;4993130;28;20513;-51
2022/07/08 05:56:48;;;;;;;10.67;2.20;;;16.20;99.90;;;;;;4993890;28;20188;-51
2022/07/08 05:59:14;;;;;;;10.13;2.40;;;16.10;99.90;;;;;;4986416;28;20191;-51
2022/07/08 06:01:40;;;;;;;11.47;2.47;;;16.10;99.90;;;;;;4994743;28;20176;-52
2022/07/08 06:04:06;;;;;;;12.77;3.40;;;16.20;99.90;;;;;;4993757;28;20200;-51
2022/07/08 06:06:31;;;;;;;7.03;2.20;;;16.50;99.90;;;;;;4994583;28;20406;-51
2022/07/08 06:08:57;;;;;;;10.80;2.27;;;16.70;99.90;;;;;;4989726;28;20231;-51
2022/07/08 06:11:23;;;;;;;16.03;3.30;;;16.70;99.90;;;;;;4990482;28;20264;-51
2022/07/08 06:13:49;;;;;;;10.30;2.50;;;16.80;99.90;;;;;;4990557;28;20561;-52
2022/07/08 06:16:15;;;;;;;15.70;3.23;;;16.90;99.90;;;;;;4993189;28;20238;-51
2022/07/08 06:18:41;;;;;;;18.30;3.50;;;16.90;99.90;;;;;;4992150;28;20443;-51
2022/07/08 06:21:07;;;;;;;11.37;1.93;;;17.00;99.90;;;;;;4990287;28;20192;-51
2022/07/08 06:23:34;;;;;;;7.67;2.30;;;17.00;99.90;;;;;;4992470;28;20430;-51
2022/07/08 06:26:00;;;;;;;11.40;2.63;;;17.20;99.90;;;;;;4988022;28;20212;-51
2022/07/08 06:28:26;;;;;;;8.80;2.30;;;17.10;99.90;;;;;;4993978;28;20403;-51
2022/07/08 06:30:51;;;;;;;13.17;2.73;;;17.20;99.90;;;;;;4990093;28;20223;-51
2022/07/08 06:33:17;;;;;;;11.93;2.53;;;17.50;99.90;;;;;;4992003;28;20263;-52
2022/07/08 06:35:43;;;;;;;12.40;2.40;;;17.80;99.90;;;;;;4991703;28;20192;-51
2022/07/08 06:38:08;;;;;;;11.23;2.20;;;18.10;99.90;;;;;;4990397;28;20192;-52
2022/07/08 06:40:34;;;;;;;13.53;2.80;;;18.40;99.90;;;;;;4978007;28;20882;-55
2022/07/08 06:42:59;;;;;;;8.90;2.93;;;18.60;99.90;;;;;;4981285;28;20188;-52
2022/07/08 06:45:30;;;;;;;14.03;2.60;;;18.80;99.90;;;;;;4981615;28;20216;-52
2022/07/08 06:47:55;;;;;;;8.10;2.03;;;18.70;99.90;;;;;;4981774;28;20192;-52
2022/07/08 06:50:21;;;;;;;8.60;2.10;;;18.60;99.90;;;;;;4983969;28;20435;-52
2022/07/08 06:52:47;;;;;;;9.53;2.60;;;18.60;99.90;;;;;;4989955;28;20194;-52
2022/07/08 06:55:12;;;;;;;12.70;2.30;;;18.30;99.90;;;;;;4988936;28;20246;-52
2022/07/08 06:57:38;;;;;;;8.67;1.97;;;18.40;99.90;;;;;;4992481;28;20712;-52
2022/07/08 07:00:05;;;;;;;9.37;2.60;;;18.60;99.90;;;;;;4977136;28;20259;-52
2022/07/08 07:02:31;;;;;;;10.93;2.20;;;19.10;99.90;;;;;;4974284;28;20623;-52
2022/07/08 07:04:57;;;;;;;16.30;3.63;;;19.40;99.90;;;;;;4987658;28;20510;-52
2022/07/08 07:07:22;;;;;;;14.23;2.60;;;19.10;99.90;;;;;;4992999;28;20250;-52
2022/07/08 07:09:48;;;;;;;10.57;2.40;;;19.00;99.90;;;;;;4979250;28;20576;-52
2022/07/08 07:12:14;;;;;;;9.53;2.30;;;18.80;99.90;;;;;;4974181;28;20208;-59
2022/07/08 07:14:40;;;;;;;9.33;2.43;;;18.70;99.90;;;;;;4984093;28;20295;-52
2022/07/08 07:17:06;;;;;;;7.17;2.20;;;18.40;99.90;;;;;;4987886;28;20512;-52
2022/07/08 07:19:32;;;;;;;9.00;3.10;;;18.00;99.90;;;;;;4987747;28;20204;-52
2022/07/08 07:21:57;;;;;;;6.33;2.17;;;17.90;99.90;;;;;;4993119;28;20244;-52
2022/07/08 07:24:23;;;;;;;12.73;2.47;;;17.60;99.90;;;;;;4981611;28;20570;-52
2022/07/08 07:26:49;;;;;;;10.13;3.23;;;17.50;99.90;;;;;;4986443;28;20642;-51
2022/07/08 07:29:15;;;;;;;8.33;2.43;;;17.50;99.90;;;;;;4992290;28;20196;-52
2022/07/08 07:31:41;;;;;;;9.57;2.30;;;17.50;99.90;;;;;;4991023;28;20538;-52
2022/07/08 07:34:07;;;;;;;17.93;2.70;;;17.50;99.90;;;;;;4988458;28;20447;-52
2022/07/08 07:36:33;;;;;;;8.43;2.30;;;17.50;99.90;;;;;;4980831;28;20212;-53
2022/07/08 07:38:58;;;;;;;5.33;2.47;;;17.50;99.90;;;;;;4990844;28;20929;-52
2022/07/08 07:41:24;;;;;;;9.50;2.70;;;17.50;99.90;;;;;;4982797;28;20643;-52
2022/07/08 07:43:50;;;;;;;15.00;2.90;;;17.40;99.90;;;;;;4992442;28;20243;-52
2022/07/08 07:46:16;;;;;;;10.17;2.97;;;17.30;99.90;;;;;;4974730;28;20242;-52
2022/07/08 07:48:41;;;;;;;18.23;3.33;;;17.20;99.90;;;;;;4992779;28;20604;-52
2022/07/08 07:51:07;;;;;;;13.17;3.50;;;17.10;99.90;;;;;;4991039;28;20681;-52
2022/07/08 07:53:33;;;;;;;14.37;3.20;;;17.10;99.90;;;;;;4992303;28;20220;-55
2022/07/08 07:55:58;;;;;;;9.97;3.47;;;17.00;99.90;;;;;;4992174;28;20612;-52
2022/07/08 07:58:25;;;;;;;15.13;3.23;;;16.90;99.90;;;;;;4992681;28;20456;-52
2022/07/08 08:00:51;;;;;;;7.60;2.90;;;16.90;99.90;;;;;;4992114;28;20189;-51
2022/07/08 08:03:17;;;;;;;7.13;2.57;;;16.80;99.90;;;;;;4992530;28;20411;-52
2022/07/08 08:05:43;;;;;;;10.33;2.73;;;16.70;99.90;;;;;;4991757;28;20459;-53
2022/07/08 08:08:09;;;;;;;8.93;2.97;;;16.70;99.90;;;;;;4991312;28;20647;-52
2022/07/08 08:10:35;;;;;;;17.70;3.10;;;16.60;99.90;;;;;;4991424;28;20192;-52
2022/07/08 08:13:00;;;;;;;10.47;3.20;;;16.70;99.90;;;;;;4984948;28;20514;-52
2022/07/08 08:15:29;;;;;;;17.87;3.40;;;16.70;99.90;;;;;;4987840;28;20208;-52
2022/07/08 08:17:59;;;;;;;9.60;2.90;;;16.60;99.90;;;;;;4987211;28;20262;-51
2022/07/08 08:20:26;;;;;;;20.93;4.20;;;16.60;99.90;;;;;;4991772;28;20430;-52
2022/07/08 08:22:53;;;;;;;15.47;3.53;;;16.60;99.90;;;;;;4975828;28;20471;-52
2022/07/08 08:25:19;;;;;;;11.40;3.50;;;16.40;99.90;;;;;;4972655;28;20631;-52
2022/07/08 08:27:45;;;;;;;10.67;3.50;;;16.30;99.90;;;;;;4975769;28;20502;-52
2022/07/08 08:30:11;;;;;;;7.00;3.67;;;16.30;1.00;;;;;;4990432;28;20472;-52
2022/07/08 08:32:38;;;;;;;15.13;4.53;;;16.30;1.00;;;;;;4990816;28;20192;-52
2022/07/08 08:35:04;;;;;;;24.03;4.37;;;16.20;1.00;;;;;;4990437;28;20940;-52
2022/07/08 08:37:30;;;;;;;9.23;3.97;;;16.20;1.00;;;;;;4990402;28;20447;-52
2022/07/08 08:39:56;;;;;;;12.10;3.73;;;16.20;1.00;;;;;;4989569;28;20469;-52
2022/07/08 08:42:22;;;;;;;9.03;3.80;;;16.20;1.00;;;;;;4989406;28;20660;-52
2022/07/08 08:44:49;;;;;;;15.60;4.80;;;16.20;1.00;;;;;;4990258;28;20208;-52
2022/07/08 08:47:16;;;;;;;8.50;4.07;;;16.10;5.60;;;;;;4980004;28;20864;-52
2022/07/08 08:49:42;;;;;;;12.17;4.10;;;16.20;1.00;;;;;;4988765;28;20439;-52
2022/07/08 08:52:10;;;;;;;8.47;4.33;;;16.00;1.00;;;;;;4989923;28;20445;-52
2022/07/08 08:54:37;;;;;;;11.60;4.63;;;16.00;30.70;;;;;;4990364;28;20538;-52
2022/07/08 08:57:05;;;;;;;17.10;5.10;;;16.00;60.10;;;;;;4989294;28;20470;-52
2022/07/08 08:59:33;;;;;;;14.87;4.03;;;15.90;39.90;;;;;;4986325;28;20443;-52
2022/07/08 09:02:00;;;;;;;17.20;4.30;;;15.90;99.90;;;;;;4990646;28;21023;-52
2022/07/08 09:04:28;;;;;;;11.57;4.70;;;16.10;99.90;;;;;;4989255;28;20497;-52
2022/07/08 09:06:54;;;;;;;16.33;4.30;;;16.30;71.20;;;;;;4986216;28;20981;-52
2022/07/08 09:09:19;;;;;;;11.47;4.40;;;16.50;99.90;;;;;;4988175;28;20439;-52
2022/07/08 09:11:45;;;;;;;11.40;4.87;;;16.90;1.00;;;;;;4991068;28;20199;-52
2022/07/08 09:14:16;;;;;;;13.27;4.60;;;17.10;1.00;;;;;;4991035;28;20192;-52
2022/07/08 09:17:07;;;;;;;11.43;4.07;;;17.30;1.00;;;;;;4989049;28;20664;-52
2022/07/08 09:19:33;;;;;;;11.53;3.57;;;17.40;1.00;;;;;;4991302;28;20411;-52
2022/07/08 09:21:59;;;;;;;8.40;3.60;;;17.30;1.00;;;;;;4990301;28;20937;-52
2022/07/08 09:24:26;;;;;;;8.03;3.43;;;17.40;1.00;;;;;;4989996;28;20208;-57
2022/07/08 09:26:55;;;;;;;8.70;3.23;;;17.40;1.00;;;;;;4991124;28;20230;-58
2022/07/08 09:29:22;;;;;;;6.00;3.20;;;17.20;1.00;;;;;;4990174;28;20419;-57
2022/07/08 09:31:47;;;;;;;5.97;2.90;;;17.10;1.00;;;;;;4991011;28;20415;-57
2022/07/08 09:34:16;;;;;;;7.13;2.67;;;17.10;1.00;;;;;;4989670;28;20509;-58
2022/07/08 09:36:49;;;;;;;4.20;2.53;;;17.00;1.00;;;;;;4989632;28;20188;-58
2022/07/08 09:39:25;;;;;;;3.50;2.50;;;17.00;1.00;;;;;;4973359;28;20412;-56
2022/07/08 09:41:51;;;;;;;6.83;2.90;;;17.00;1.00;;;;;;4988367;28;20449;-58
2022/07/08 09:44:22;;;;;;;7.77;2.63;;;17.00;1.00;;;;;;4972286;28;20495;-58
2022/07/08 09:46:49;;;;;;;3.37;2.17;;;16.90;1.00;;;;;;4990629;28;20415;-57
2022/07/08 09:49:34;;;;;;;3.17;2.47;;;17.10;1.00;;;;;;4975848;28;20498;-57
2022/07/08 09:52:00;;;;;;;4.13;2.60;;;17.30;1.00;;;;;;4974959;28;20439;-58
2022/07/08 09:54:27;;;;;;;3.50;2.23;;;17.60;1.00;;;;;;4989470;28;20806;-57
2022/07/08 09:57:13;;;;;;;5.57;2.33;;;17.90;1.00;;;;;;4990088;28;21024;-58
2022/07/08 09:59:39;;;;;;;2.60;2.07;;;18.00;1.00;;;;;;4989856;28;20387;-54
2022/07/08 10:02:05;;;;;;;3.30;2.07;;;18.10;1.00;;;;;;4986715;28;20486;-59
2022/07/08 10:04:31;;;;;;;3.70;2.10;;;18.30;1.00;;;;;;4982117;28;20266;-57
2022/07/08 10:06:58;;;;;;;6.17;2.00;;;18.40;99.90;;;;;;4989202;28;20440;-59
2022/07/08 10:09:25;;;;;;;2.53;1.80;;;18.40;99.90;;;;;;4988794;28;20191;-57
2022/07/08 10:11:52;;;;;;;3.30;2.10;;;18.20;99.90;;;;;;4989575;28;20478;-57
2022/07/08 10:14:19;;;;;;;4.90;2.73;;;18.00;99.90;;;;;;4989706;28;20948;-58
2022/07/08 10:16:49;;;;;;;2.90;2.20;;;17.90;99.90;;;;;;4972592;28;20449;-54
2022/07/08 10:19:38;;;;;;;7.20;2.47;;;17.70;99.90;;;;;;4989648;28;20498;-58
2022/07/08 10:22:05;;;;;;;3.60;2.63;;;17.60;1.00;;;;;;4990519;28;20516;-58
2022/07/08 10:24:36;;;;;;;3.60;2.30;;;17.80;1.00;;;;;;4988941;28;20976;-58
2022/07/08 10:27:02;;;;;;;3.37;2.40;;;18.00;1.00;;;;;;4973251;28;20486;-58
2022/07/08 10:29:33;;;;;;;3.97;2.10;;;18.30;1.00;;;;;;4974213;28;20527;-57
2022/07/08 10:31:59;;;;;;;5.60;2.30;;;18.40;99.90;;;;;;4985924;28;20454;-60
2022/07/08 10:34:33;;;;;;;3.63;2.10;;;18.40;99.90;;;;;;4990595;28;20447;-57
2022/07/08 10:37:00;;;;;;;5.20;2.07;;;18.20;99.90;;;;;;4991143;28;20830;-57
2022/07/08 10:39:27;;;;;;;3.00;1.80;;;18.30;99.90;;;;;;4993691;28;20426;-57
2022/07/08 10:42:03;;;;;;;2.97;2.07;;;18.30;99.90;;;;;;4992788;28;20443;-57
2022/07/08 10:44:50;;;;;;;2.40;1.90;;;18.40;99.90;;;;;;4993952;28;20462;-57
2022/07/08 10:47:15;;;;;;;3.43;2.10;;;18.50;99.90;;;;;;4992742;28;20436;-58
2022/07/08 10:49:43;;;;;;;2.80;2.20;;;18.60;99.90;;;;;;4992244;28;20481;-58
2022/07/08 10:52:08;;;;;;;7.23;2.60;;;18.90;99.90;;;;;;4993653;28;20203;-58
2022/07/08 10:54:37;;;;;;;7.50;2.30;;;19.00;99.90;;;;;;4992010;28;20494;-58
2022/07/08 10:57:28;;;;;;;8.77;6.23;;;19.20;99.90;;;;;;4989071;28;20670;-58
2022/07/08 11:00:10;;;;;;;8.83;4.40;;;19.30;99.90;;;;;;4991852;28;20562;-57
2022/07/08 11:02:45;;;;;;;10.00;3.20;;;19.30;99.90;;;;;;4992540;28;20518;-58
2022/07/08 11:05:33;;;;;;;10.00;2.47;;;19.00;99.90;;;;;;4993435;28;20474;-56
2022/07/08 11:08:20;;;;;;;6.43;3.07;;;18.70;99.90;;;;;;4993783;28;20497;-58
2022/07/08 11:10:47;;;;;;;6.17;3.10;;;18.60;99.90;;;;;;4993486;28;20494;-58
2022/07/08 11:13:12;;;;;;;6.53;2.60;;;18.60;99.90;;;;;;4992123;28;20554;-57
2022/07/08 11:15:38;;;;;;;6.03;2.30;;;19.40;99.90;;;;;;4992452;28;20444;-57
2022/07/08 11:18:04;;;;;;;5.97;2.20;;;20.20;99.90;;;;;;4991807;28;20199;-58
2022/07/08 11:20:31;;;;;;;4.07;2.30;;;20.50;99.90;;;;;;4992418;28;20192;-58
2022/07/08 11:22:57;;;;;;;4.10;1.70;;;21.00;99.90;;;;;;4990960;28;20790;-57
2022/07/08 11:25:23;;;;;;;2.90;1.80;;;21.30;99.90;;;;;;4992005;28;20212;-59
2022/07/08 11:27:50;;;;;;;5.47;1.60;;;21.00;99.90;;;;;;4991600;28;20470;-59
2022/07/08 11:30:17;;;;;;;3.63;1.83;;;21.20;99.90;;;;;;4991638;28;20436;-58
2022/07/08 11:32:47;;;;;;;4.07;1.60;;;21.30;99.90;;;;;;4989099;28;20435;-58
2022/07/08 11:35:13;;;;;;;2.20;1.67;;;21.40;99.90;;;;;;4992852;28;20514;-57
2022/07/08 11:37:43;;;;;;;2.60;1.43;;;21.20;99.90;;;;;;4991813;28;20443;-57
2022/07/08 11:40:11;;;;;;;1.60;1.50;;;21.30;99.90;;;;;;4992488;28;20400;-57
2022/07/08 11:42:37;;;;;;;5.13;1.80;;;21.40;99.90;;;;;;4991257;28;20491;-57
2022/07/08 11:45:05;;;;;;;4.33;2.33;;;20.90;99.90;;;;;;4992118;28;20983;-57
2022/07/08 11:47:30;;;;;;;3.20;1.70;;;20.50;99.90;;;;;;4988536;28;20499;-56
2022/07/08 11:49:56;;;;;;;7.37;1.90;;;20.20;99.90;;;;;;4990630;28;20443;-55
2022/07/08 11:52:22;;;;;;;4.33;2.00;;;20.00;99.90;;;;;;4991671;28;20648;-56
2022/07/08 11:54:48;;;;;;;5.17;2.03;;;20.00;99.90;;;;;;4991939;28;20479;-57
2022/07/08 11:57:17;;;;;;;4.00;2.00;;;20.10;99.90;;;;;;4992403;28;20561;-57
2022/07/08 11:59:45;;;;;;;2.20;1.97;;;20.30;99.90;;;;;;4990202;28;20517;-57
2022/07/08 12:02:11;;;;;;;5.47;2.63;;;20.50;99.90;;;;;;4990002;28;20983;-57
2022/07/08 12:04:37;;;;;;;3.27;2.10;;;20.60;99.90;;;;;;4993730;28;20521;-58
2022/07/08 12:07:22;;;;;;;4.77;2.20;;;20.70;99.90;;;;;;4991316;28;20443;-57
2022/07/08 12:09:54;;;;;;;4.00;1.80;;;20.30;99.90;;;;;;4992960;28;20203;-57
2022/07/08 12:12:25;;;;;;;7.57;2.40;;;20.90;99.90;;;;;;4988730;28;20447;-56
2022/07/08 12:14:51;;;;;;;6.70;2.20;;;21.80;99.90;;;;;;4978434;28;20945;-57
2022/07/08 12:17:28;;;;;;;3.50;2.83;;;22.60;99.90;;;;;;4990907;28;20574;-58
2022/07/08 12:19:54;;;;;;;4.50;2.20;;;22.80;99.90;;;;;;4988769;28;20517;-60
2022/07/08 12:22:46;;;;;;;6.17;2.17;;;23.30;99.90;;;;;;4990690;28;20447;-57
2022/07/08 12:25:13;;;;;;;5.77;2.17;;;24.00;99.90;;;;;;4991243;28;20910;-56
2022/07/08 12:27:39;;;;;;;4.87;2.13;;;24.30;99.90;;;;;;4986670;28;20507;-56
2022/07/08 12:30:06;;;;;;;4.13;2.10;;;24.40;99.90;;;;;;4989273;28;20538;-57
2022/07/08 12:32:43;;;;;;;3.43;2.10;;;24.50;99.90;;;;;;4991899;28;20203;-57
2022/07/08 12:35:10;;;;;;;3.47;2.07;;;24.40;99.90;;;;;;4989929;28;20453;-58
2022/07/08 12:37:36;;;;;;;3.50;1.97;;;24.30;99.90;;;;;;4991692;28;20442;-58
2022/07/08 12:40:18;;;;;;;4.80;2.50;;;23.80;99.90;;;;;;4989806;28;20446;-57
2022/07/08 12:43:04;;;;;;;4.33;2.43;;;23.60;99.90;;;;;;4987670;28;20493;-57
2022/07/08 12:45:30;;;;;;;7.10;2.97;;;23.60;99.90;;;;;;4986613;28;20542;-57